ADDS METAR Data INFO
IDs: Format: Raw Decoded Include TAF

Data at: 0212 UTC 19 Jul 2018

KCFD 190155Z AUTO 15007KT 10SM CLR 32/22 A2992 RMK AO2 T03150215
KCFD 190135Z AUTO 16009KT 10SM CLR 32/23 A2992 RMK AO2 T03170225
KCFD 190115Z AUTO 15007KT 10SM CLR 32/23 A2992 RMK AO2 T03230225
KCFD 190055Z AUTO 15010KT 10SM CLR 33/22 A2991 RMK AO2 T03310219
KCFD 190035Z AUTO 15009KT 34/21 A2990 RMK AO2 T03400205 PWINO
KCFD 182155Z AUTO 20007KT 10SM CLR 36/20 A2992 RMK AO2 T03630195
KCFD 182135Z AUTO 20006KT 10SM CLR 36/20 A2992 RMK AO2 T03620200
KCFD 182115Z AUTO 19008KT 10SM 37/20 A2993 RMK AO2 T03650199
KCFD 182055Z AUTO 16007KT 10SM CLR 36/21 A2994 RMK AO2 T03600213
KCFD 182035Z AUTO 23007KT 10SM CLR 36/21 A2994 RMK AO2 T03570210
KCFD 182015Z AUTO 19003KT 10SM CLR 35/21 A2995 RMK AO2 T03530205
KCFD 181955Z AUTO 23004KT 10SM CLR 35/20 A2996 RMK AO2 T03530200
KCFD 181935Z AUTO 21008KT 160V250 10SM CLR 35/20 A2997 RMK AO2 T03500204
KCFD 181915Z AUTO 23010KT 10SM CLR 35/21 A2998 RMK AO2 T03480207
KCFD 181855Z AUTO 20003KT 10SM CLR 34/21 A2998 RMK AO2 T03440208
KCFD 181835Z AUTO 21004KT 10SM CLR 34/22 A2999 RMK AO2 T03390219
KCFD 181815Z AUTO 21007KT 10SM CLR 34/22 A3000 RMK AO2 T03380220
KCFD 181755Z AUTO 25010KT 10SM CLR 34/22 A3000 RMK AO2 T03350223 10335 20246
KCFD 181735Z AUTO 22009G15KT 10SM CLR 33/22 A3001 RMK AO2 T03280221
KCFD 181715Z AUTO 22009G14KT 10SM CLR 33/22 A3001 RMK AO2 T03250224
KCFD 181655Z AUTO 23009KT 10SM CLR 32/23 A3002 RMK AO2 T03210227
KCFD 181635Z AUTO 24009KT 10SM CLR 32/23 A3003 RMK AO2 T03150228
KCFD 181615Z AUTO 21008KT 10SM CLR 31/23 A3003 RMK AO2 T03060228
KCFD 181555Z AUTO 23008KT 10SM CLR 30/23 A3003 RMK AO2 T03040230
KCFD 181535Z AUTO 25010KT 10SM CLR 30/23 A3003 RMK AO2 T02990230
KCFD 181515Z AUTO 23009G16KT 10SM CLR 29/23 A3003 RMK AO2 T02900226
KCFD 181455Z AUTO 20009KT 10SM SCT020 29/23 A3004 RMK AO2 T02870231
KCFD 181435Z AUTO 23010KT 10SM SCT015 28/23 A3004 RMK AO2 T02810230
KCFD 181415Z AUTO 23007KT 10SM BKN013 27/24 A3005 RMK AO2 T02710238
KCFD 181355Z AUTO 24007KT 10SM BKN011 27/24 A3005 RMK AO2 T02660242
KCFD 181335Z AUTO 24009KT 10SM OVC011 26/25 A3005 RMK AO2 T02600246
KCFD 181315Z AUTO 22009G14KT 10SM OVC009 26/25 A3005 RMK AO2 T02550250
KCFD 181255Z AUTO 22007KT 10SM BKN009 25/25 A3005 RMK AO2 T02510251
KCFD 181235Z AUTO 22006KT 10SM BKN009 25/25 A3004 RMK AO2 T02470247
KCFD 181215Z AUTO 21006KT 10SM OVC009 25/25 A3003 RMK AO2 T02460246
KCFD 181155Z AUTO 22006KT 10SM OVC009 25/25 A3003 RMK AO2 T02480248 10270 20242
KCFD 181135Z AUTO 22006KT 10SM OVC009 25/25 A3003 RMK AO2 T02480248
KCFD 181115Z AUTO 21008KT 10SM OVC009 25/25 A3002 RMK AO2 T02470247
KCFD 181055Z AUTO 22010G15KT 10SM OVC007 25/25 A3002 RMK AO2 T02460246
KCFD 181035Z AUTO 22007KT 10SM OVC007 24/24 A3002 RMK AO2 T02430243
KCFD 181015Z AUTO 21009KT 10SM BKN007 24/24 A3002 RMK AO2 T02420242
KCFD 180955Z AUTO 21006G14KT 10SM CLR 25/25 A3001 RMK AO2 T02450245
KCFD 180935Z AUTO 22007KT 10SM CLR 24/24 A3001 RMK AO2 T02430243
KCFD 180915Z AUTO 20006KT 10SM CLR 25/25 A3001 RMK AO2 T02450245
KCFD 180855Z AUTO 21008KT 10SM CLR 25/24 A3000 RMK AO2 T02460243
KCFD 180835Z AUTO 21006KT 10SM CLR 25/24 A3001 RMK AO2 T02470235
KCFD 180815Z AUTO 20005KT 10SM CLR 25/23 A3001 RMK AO2 T02500230
KCFD 180755Z AUTO 19006KT 10SM CLR 25/23 A3001 RMK AO2 T02510226
KCFD 180735Z AUTO 20008KT 10SM CLR 26/23 A3001 RMK AO2 T02550225
KCFD 180715Z AUTO 19007KT 10SM CLR 26/22 A3002 RMK AO2 T02570224
KCFD 180655Z AUTO 19006KT 10SM CLR 26/22 A3001 RMK AO2 T02600222
KCFD 180635Z AUTO 19008KT 10SM CLR 26/22 A3001 RMK AO2 T02630222
KCFD 180615Z AUTO 19008KT 10SM CLR 27/22 A3001 RMK AO2 T02660222
KCFD 180555Z AUTO 19009KT 10SM CLR 27/22 A3001 RMK AO2 T02700222 10343 20270 403600236
KCFD 180535Z AUTO 19008KT 10SM CLR 28/22 A3002 RMK AO2 T02750222
KCFD 180515Z AUTO 19008G15KT 10SM CLR 28/22 A3001 RMK AO2 T02790223
KCFD 180455Z AUTO 19010G15KT 10SM CLR 28/22 A3001 RMK AO2 T02820224
KCFD 180435Z AUTO 18007KT 10SM CLR 29/23 A3002 RMK AO2 T02850226
KCFD 180415Z AUTO 18007KT 10SM CLR 29/23 A3002 RMK AO2 T02890226
KCFD 180355Z AUTO 17008KT 10SM CLR 29/23 A3002 RMK AO2 T02900226
KCFD 180335Z AUTO 16007KT 10SM CLR 29/22 A3001 RMK AO2 T02860222
KCFD 180315Z AUTO 15005KT 10SM CLR 28/22 A3001 RMK AO2 T02840221
KCFD 180255Z AUTO 15005KT 10SM CLR 29/22 A3000 RMK AO2 T02890221
KCFD 180235Z AUTO 16005KT 10SM CLR 30/22 A3000 RMK AO2 T02990220
KCFD 180215Z AUTO 16007KT 10SM CLR 30/22 A3000 RMK AO2 T03010223
KCFD 180155Z AUTO 16008KT 10SM CLR 31/23 A3000 RMK AO2 T03060227
KCFD 180135Z AUTO 15009KT 10SM CLR 31/23 A3000 RMK AO2 T03100231
KCFD 180115Z AUTO 15007KT 10SM CLR 32/23 A3000 RMK AO2 T03170230
KCFD 180055Z AUTO 17006KT 10SM CLR 32/22 A2999 RMK AO2 T03240217
KCFD 180035Z AUTO 15005KT 10SM CLR 33/21 A2999 RMK AO2 T03340213
KCFD 180015Z AUTO 20007KT 10SM CLR 34/20 A2998 RMK AO2 T03400202
KCFD 172355Z AUTO 20006KT 10SM CLR 34/20 A2998 RMK AO2 T03440201 10360 20318
KCFD 172335Z AUTO 21004KT 10SM CLR 35/19 A2998 RMK AO2 T03460194
KCFD 172315Z AUTO 19006KT 10SM CLR 35/20 A2998 RMK AO2 T03500202
KCFD 172255Z AUTO 18007KT 10SM CLR 35/19 A2999 RMK AO2 T03520194
KCFD 172235Z AUTO 19006KT 10SM CLR 35/20 A2999 RMK AO2 T03530200
KCFD 172215Z AUTO 19006KT 10SM CLR 35/20 A2999 RMK AO2 T03540197
KCFD 172155Z AUTO 23009KT 10SM CLR 36/20 A3000 RMK AO2 T03560196
KCFD 172135Z AUTO 19006KT 10SM CLR 36/20 A3000 RMK AO2 T03590198
KCFD 172115Z AUTO 23007KT 10SM CLR 35/21 A3001 RMK AO2 T03530210
KCFD 172055Z AUTO 20007KT 10SM CLR 36/21 A3001 RMK AO2 T03560207
KCFD 172035Z AUTO 22010KT 10SM CLR 35/20 A3002 RMK AO2 T03520202
KCFD 172015Z AUTO 25006KT 210V270 10SM CLR 35/19 A3003 RMK AO2 T03510189
KCFD 171955Z AUTO 16008KT 10SM CLR 34/20 A3005 RMK AO2 T03430202
KCFD 171935Z AUTO 22007KT 10SM CLR 35/20 A3006 RMK AO2 T03450202
KCFD 171915Z AUTO 23007KT 10SM CLR 34/20 A3007 RMK AO2 T03400199
KCFD 171855Z AUTO 23007KT 10SM CLR 34/20 A3007 RMK AO2 T03370200
KCFD 171835Z AUTO 22004KT 10SM CLR 33/21 A3008 RMK AO2 T03290214
KCFD 171815Z AUTO 17004KT 10SM CLR 33/22 A3009 RMK AO2 T03280215
KCFD 171755Z AUTO 20006KT 10SM CLR 32/21 A3010 RMK AO2 T03210213 10323 20236
KCFD 171735Z AUTO 25007KT 10SM CLR 32/22 A3010 RMK AO2 T03170216
KCFD 171715Z AUTO 19007KT 10SM CLR 31/22 A3010 RMK AO2 T03120216
KCFD 171655Z AUTO 22007KT 10SM CLR 31/22 A3010 RMK AO2 T03090222
KCFD 171635Z AUTO 23007KT 190V250 10SM CLR 30/22 A3010 RMK AO2 T03040223
KCFD 171615Z AUTO 22009KT 10SM CLR 30/23 A3011 RMK AO2 T02960225
KCFD 171555Z AUTO 23008KT 10SM CLR 29/22 A3011 RMK AO2 T02930222
KCFD 171535Z AUTO 24009KT 200V260 10SM CLR 29/23 A3011 RMK AO2 T02900226
KCFD 171515Z AUTO 23008KT 10SM BKN019 28/23 A3011 RMK AO2 T02830227
KCFD 171455Z AUTO 24008KT 10SM BKN017 28/23 A3011 RMK AO2 T02780230
KCFD 171435Z AUTO 23009KT 10SM BKN015 27/24 A3011 RMK AO2 T02720236
KCFD 171415Z AUTO 24007KT 10SM OVC013 26/24 A3011 RMK AO2 T02630235